Time,TemperatureF,DewpointF,PressureIn,WindDirection,WindDirectionDegrees,WindSpeedMPH,WindSpeedGustMPH,Humidity,HourlyPrecipIn,Conditions,Clouds,dailyrainin,SoftwareType,DateUTC
2013-01-13 00:05:00,30.0,29.8,30.39,ENE,67,0.0,0.0,99,0.00,,,0.00,Wunderground v.1.15,2013-01-13 08:05:00,
2013-01-13 00:10:00,29.9,29.7,30.39,ENE,67,0.0,0.0,99,0.00,,,0.00,Wunderground v.1.15,2013-01-13 08:10:00,
2013-01-13 00:15:00,29.9,29.7,30.38,ENE,67,0.0,0.0,99,0.00,,,0.00,Wunderground v.1.15,2013-01-13 08:15:00,
2013-01-13 00:25:00,29.8,29.6,30.39,ENE,62,0.0,0.0,99,0.00,,,0.00,Wunderground v.1.15,2013-01-13 08:25:00,
2013-01-13 00:30:00,29.9,29.7,30.39,ENE,62,0.0,0.0,99,0.00,,,0.00,Wunderground v.1.15,2013-01-13 08:30:00,
2013-01-13 00:35:00,29.9,29.7,30.39,ENE,62,0.0,0.0,99,0.00,,,0.00,Wunderground v.1.15,2013-01-13 08:35:00,
2013-01-13 00:45:00,30.1,29.9,30.39,East,100,0.0,0.0,99,0.00,,,0.00,Wunderground v.1.15,2013-01-13 08:45:00,
2013-01-13 00:50:00,30.0,29.8,30.39,East,81,0.0,0.0,99,0.00,,,0.00,Wunderground v.1.15,2013-01-13 08:50:00,
2013-01-13 00:55:00,30.1,29.9,30.39,ENE,60,0.0,0.0,99,0.00,,,0.00,Wunderground v.1.15,2013-01-13 08:55:00,
2013-01-13 01:00:00,30.3,30.1,30.39,NE,39,0.0,0.0,99,0.00,,,0.00,Wunderground v.1.15,2013-01-13 09:00:00,
2013-01-13 01:10:00,30.4,30.2,30.39,ENE,78,0.0,0.0,99,0.00,,,0.00,Wunderground v.1.15,2013-01-13 09:10:00,
2013-01-13 01:15:00,30.4,30.2,30.39,SE,135,0.0,0.0,99,0.00,,,0.00,Wunderground v.1.15,2013-01-13 09:15:00,
2013-01-13 01:20:00,30.4,29.9,30.39,ENE,70,0.0,0.0,98,0.00,,,0.00,Wunderground v.1.15,2013-01-13 09:20:00,
2013-01-13 01:25:00,30.3,29.8,30.39,ESE,117,0.0,0.0,98,0.00,,,0.00,Wunderground v.1.15,2013-01-13 09:25:00,
2013-01-13 01:35:00,30.2,29.7,30.39,East,101,0.0,0.0,98,0.00,,,0.00,Wunderground v.1.15,2013-01-13 09:35:00,
2013-01-13 01:40:00,30.2,29.7,30.39,SE,124,0.0,0.0,98,0.00,,,0.00,Wunderground v.1.15,2013-01-13 09:40:00,
2013-01-13 01:45:00,30.2,29.7,30.39,SE,124,0.0,0.0,98,0.00,,,0.00,Wunderground v.1.15,2013-01-13 09:45:00,
2013-01-13 01:55:00,30.3,29.8,30.39,ESE,120,0.0,0.0,98,0.00,,,0.00,Wunderground v.1.15,2013-01-13 09:55:00,
2013-01-13 02:00:00,30.4,29.9,30.39,ESE,120,0.0,0.0,98,0.00,,,0.00,Wunderground v.1.15,2013-01-13 10:00:00,
2013-01-13 02:05:00,30.4,29.9,30.39,ENE,78,0.0,0.0,98,0.00,,,0.00,Wunderground v.1.15,2013-01-13 10:05:00,
2013-01-13 02:15:00,30.4,29.9,30.39,East,79,0.0,0.0,98,0.00,,,0.00,Wunderground v.1.15,2013-01-13 10:15:00,
2013-01-13 02:20:00,30.4,29.9,30.39,East,79,0.0,0.0,98,0.00,,,0.00,Wunderground v.1.15,2013-01-13 10:20:00,
2013-01-13 02:25:00,30.4,29.9,30.39,East,79,0.0,0.0,98,0.00,,,0.00,Wunderground v.1.15,2013-01-13 10:25:00,
2013-01-13 02:35:00,30.4,29.9,30.40,East,94,0.0,1.0,98,0.00,,,0.00,Wunderground v.1.15,2013-01-13 10:35:00,
2013-01-13 02:40:00,30.5,30.0,30.40,East,83,0.0,0.0,98,0.00,,,0.00,Wunderground v.1.15,2013-01-13 10:40:00,
2013-01-13 02:45:00,30.6,30.1,30.40,ESE,115,0.0,0.0,98,0.00,,,0.00,Wunderground v.1.15,2013-01-13 10:45:00,
2013-01-13 02:50:00,30.6,30.1,30.40,ESE,115,0.0,0.0,98,0.00,,,0.00,Wunderground v.1.15,2013-01-13 10:50:00,
2013-01-13 02:55:00,30.6,30.1,30.40,ESE,115,0.0,0.0,98,0.00,,,0.00,Wunderground v.1.15,2013-01-13 10:55:00,
2013-01-13 03:05:00,30.5,30.0,30.40,ESE,111,0.0,1.0,98,0.00,,,0.00,Wunderground v.1.15,2013-01-13 11:05:00,
2013-01-13 03:10:00,30.4,29.9,30.40,ESE,110,0.0,0.0,98,0.00,,,0.00,Wunderground v.1.15,2013-01-13 11:10:00,
2013-01-13 03:15:00,30.2,29.7,30.39,ESE,110,0.0,0.0,98,0.00,,,0.00,Wunderground v.1.15,2013-01-13 11:15:00,
2013-01-13 03:20:00,30.1,29.6,30.40,ESE,104,0.0,1.0,98,0.00,,,0.00,Wunderground v.1.15,2013-01-13 11:20:00,
2013-01-13 03:30:00,29.9,29.4,30.40,ESE,103,0.0,0.0,98,0.00,,,0.00,Wunderground v.1.15,2013-01-13 11:30:00,
2013-01-13 03:35:00,29.8,29.3,30.40,ESE,106,0.0,0.0,98,0.00,,,0.00,Wunderground v.1.15,2013-01-13 11:35:00,
2013-01-13 03:45:00,29.7,29.2,30.40,ESE,106,0.0,1.0,98,0.00,,,0.00,Wunderground v.1.15,2013-01-13 11:45:00,
2013-01-13 03:50:00,29.6,29.1,30.40,ESE,105,0.0,1.0,98,0.00,,,0.00,Wunderground v.1.15,2013-01-13 11:50:00,
2013-01-13 03:55:00,29.6,29.1,30.40,ESE,113,0.0,1.0,98,0.00,,,0.00,Wunderground v.1.15,2013-01-13 11:55:00,
2013-01-13 04:05:00,29.5,29.0,30.39,ENE,73,0.0,0.0,98,0.00,,,0.00,Wunderground v.1.15,2013-01-13 12:05:00,
2013-01-13 04:10:00,29.5,29.0,30.39,ENE,73,0.0,0.0,98,0.00,,,0.00,Wunderground v.1.15,2013-01-13 12:10:00,
2013-01-13 04:20:00,29.4,28.9,30.39,ESE,116,0.0,0.0,98,0.00,,,0.00,Wunderground v.1.15,2013-01-13 12:20:00,
2013-01-13 04:25:00,29.4,28.9,30.39,ENE,68,0.0,0.0,98,0.00,,,0.00,Wunderground v.1.15,2013-01-13 12:25:00,
2013-01-13 04:30:00,29.3,28.8,30.39,ENE,68,0.0,0.0,98,0.00,,,0.00,Wunderground v.1.15,2013-01-13 12:30:00,
2013-01-13 04:40:00,29.3,28.8,30.39,ENE,59,0.0,0.0,98,0.00,,,0.00,Wunderground v.1.15,2013-01-13 12:40:00,
2013-01-13 04:50:00,29.2,28.7,30.39,ENE,60,0.0,1.0,98,0.00,,,0.00,Wunderground v.1.15,2013-01-13 12:50:00,
2013-01-13 04:55:00,29.2,28.7,30.39,ENE,60,0.0,1.0,98,0.00,,,0.00,Wunderground v.1.15,2013-01-13 12:55:00,
2013-01-13 05:00:00,29.2,28.7,30.39,ENE,60,0.0,0.0,98,0.00,,,0.00,Wunderground v.1.15,2013-01-13 13:00:00,
2013-01-13 05:10:00,29.1,28.6,30.39,SE,130,0.0,0.0,98,0.00,,,0.00,Wunderground v.1.15,2013-01-13 13:10:00,
2013-01-13 05:15:00,29.0,28.5,30.40,ESE,123,0.0,0.0,98,0.00,,,0.00,Wunderground v.1.15,2013-01-13 13:15:00,
2013-01-13 05:25:00,29.0,28.5,30.40,ESE,123,0.0,1.0,98,0.00,,,0.00,Wunderground v.1.15,2013-01-13 13:25:00,
2013-01-13 05:30:00,29.0,28.5,30.40,ESE,105,0.0,0.0,98,0.00,,,0.00,Wunderground v.1.15,2013-01-13 13:30:00,
2013-01-13 05:35:00,28.9,28.4,30.40,ESE,105,0.0,0.0,98,0.00,,,0.00,Wunderground v.1.15,2013-01-13 13:35:00,
2013-01-13 05:40:00,28.9,28.4,30.40,ESE,105,0.0,0.0,98,0.00,,,0.00,Wunderground v.1.15,2013-01-13 13:40:00,
2013-01-13 05:50:00,28.8,28.3,30.40,ESE,105,0.0,0.0,98,0.00,,,0.00,Wunderground v.1.15,2013-01-13 13:50:00,
2013-01-13 05:55:00,28.7,28.2,30.40,ESE,105,0.0,0.0,98,0.00,,,0.00,Wunderground v.1.15,2013-01-13 13:55:00,
2013-01-13 06:00:00,28.6,28.1,30.40,ENE,63,0.0,0.0,98,0.00,,,0.00,Wunderground v.1.15,2013-01-13 14:00:00,
2013-01-13 06:05:00,28.7,28.5,30.40,ENE,63,0.0,0.0,99,0.00,,,0.00,Wunderground v.1.15,2013-01-13 14:05:00,
2013-01-13 06:15:00,28.7,28.5,30.41,ENE,64,0.0,1.0,99,0.00,,,0.00,Wunderground v.1.15,2013-01-13 14:15:00,
2013-01-13 06:20:00,28.6,28.1,30.41,ENE,63,0.0,0.0,98,0.00,,,0.00,Wunderground v.1.15,2013-01-13 14:20:00,
2013-01-13 06:25:00,28.7,28.2,30.41,ENE,57,0.0,0.0,98,0.00,,,0.00,Wunderground v.1.15,2013-01-13 14:25:00,
2013-01-13 06:30:00,28.6,28.1,30.42,ENE,58,0.0,0.0,98,0.00,,,0.00,Wunderground v.1.15,2013-01-13 14:30:00,
2013-01-13 06:40:00,28.8,28.6,30.41,ENE,57,0.0,0.0,99,0.00,,,0.00,Wunderground v.1.15,2013-01-13 14:40:00,
2013-01-13 06:45:00,28.8,28.6,30.42,NE,56,0.0,0.0,99,0.00,,,0.00,Wunderground v.1.15,2013-01-13 14:45:00,
2013-01-13 06:55:00,28.9,28.4,30.41,ENE,58,0.0,0.0,98,0.00,,,0.00,Wunderground v.1.15,2013-01-13 14:55:00,
2013-01-13 07:05:00,29.0,28.8,30.42,NE,39,0.0,1.0,99,0.00,,,0.00,Wunderground v.1.15,2013-01-13 15:05:00,
2013-01-13 07:10:00,29.0,28.8,30.42,ESE,109,0.0,0.0,99,0.00,,,0.00,Wunderground v.1.15,2013-01-13 15:10:00,
2013-01-13 07:20:00,29.0,28.5,30.42,East,82,0.0,0.0,98,0.00,,,0.00,Wunderground v.1.15,2013-01-13 15:20:00,
2013-01-13 07:25:00,28.9,28.4,30.42,East,82,0.0,0.0,98,0.00,,,0.00,Wunderground v.1.15,2013-01-13 15:25:00,
2013-01-13 07:30:00,28.8,28.3,30.42,East,82,0.0,1.0,98,0.00,,,0.00,Wunderground v.1.15,2013-01-13 15:30:00,
2013-01-13 07:35:00,28.9,28.7,30.43,East,82,0.0,1.0,99,0.00,,,0.00,Wunderground v.1.15,2013-01-13 15:35:00,
2013-01-13 07:45:00,29.0,28.8,30.43,East,82,0.0,0.0,99,0.00,,,0.00,Wunderground v.1.15,2013-01-13 15:45:00,
2013-01-13 07:50:00,29.0,28.5,30.43,East,82,0.0,0.0,98,0.00,,,0.00,Wunderground v.1.15,2013-01-13 15:50:00,
2013-01-13 07:55:00,28.9,28.4,30.43,East,84,0.0,0.0,98,0.00,,,0.00,Wunderground v.1.15,2013-01-13 15:55:00,
2013-01-13 08:00:00,28.9,28.4,30.43,East,84,0.0,0.0,98,0.00,,,0.00,Wunderground v.1.15,2013-01-13 16:00:00,
2013-01-13 08:10:00,28.9,28.4,30.44,East,84,0.0,0.0,98,0.00,,,0.00,Wunderground v.1.15,2013-01-13 16:10:00,
2013-01-13 08:15:00,28.9,28.7,30.44,East,84,0.0,0.0,99,0.00,,,0.00,Wunderground v.1.15,2013-01-13 16:15:00,
2013-01-13 08:20:00,29.0,28.8,30.44,ENE,58,0.0,1.0,99,0.00,,,0.00,Wunderground v.1.15,2013-01-13 16:20:00,
2013-01-13 08:30:00,28.9,28.4,30.44,ENE,59,0.0,0.0,98,0.00,,,0.00,Wunderground v.1.15,2013-01-13 16:30:00,
2013-01-13 08:35:00,29.0,28.5,30.44,ENE,64,0.0,1.0,98,0.00,,,0.00,Wunderground v.1.15,2013-01-13 16:35:00,
2013-01-13 08:40:00,29.1,28.6,30.44,ENE,64,0.0,0.0,98,0.00,,,0.00,Wunderground v.1.15,2013-01-13 16:40:00,
2013-01-13 08:45:00,29.1,28.6,30.44,East,94,0.0,0.0,98,0.00,,,0.00,Wunderground v.1.15,2013-01-13 16:45:00,
2013-01-13 08:50:00,29.0,28.5,30.44,East,94,0.0,0.0,98,0.00,,,0.00,Wunderground v.1.15,2013-01-13 16:50:00,
2013-01-13 09:00:00,29.0,28.5,30.44,ENE,68,0.0,1.0,98,0.00,,,0.00,Wunderground v.1.15,2013-01-13 17:00:00,
2013-01-13 09:05:00,29.0,28.5,30.44,ENE,67,0.0,1.0,98,0.00,,,0.00,Wunderground v.1.15,2013-01-13 17:05:00,
2013-01-13 09:15:00,29.2,28.7,30.45,ENE,68,0.0,0.0,98,0.00,,,0.00,Wunderground v.1.15,2013-01-13 17:15:00,
2013-01-13 09:20:00,29.3,28.8,30.45,ENE,67,0.0,0.0,98,0.00,,,0.00,Wunderground v.1.15,2013-01-13 17:20:00,
2013-01-13 09:25:00,29.5,29.3,30.44,ENE,68,0.0,1.0,99,0.00,,,0.00,Wunderground v.1.15,2013-01-13 17:25:00,
2013-01-13 09:30:00,29.7,29.2,30.44,ENE,67,0.0,0.0,98,0.00,,,0.00,Wunderground v.1.15,2013-01-13 17:30:00,
2013-01-13 09:35:00,29.9,29.4,30.45,East,79,0.0,1.0,98,0.00,,,0.00,Wunderground v.1.15,2013-01-13 17:35:00,
2013-01-13 09:45:00,30.8,30.3,30.44,East,79,0.0,0.0,98,0.00,,,0.00,Wunderground v.1.15,2013-01-13 17:45:00,
2013-01-13 09:50:00,31.2,30.7,30.45,East,79,0.0,0.0,98,0.00,,,0.00,Wunderground v.1.15,2013-01-13 17:50:00,
2013-01-13 09:55:00,31.4,30.9,30.45,East,79,0.0,0.0,98,0.00,,,0.00,Wunderground v.1.15,2013-01-13 17:55:00,
2013-01-13 10:00:00,31.6,31.1,30.45,East,79,0.0,0.0,98,0.00,,,0.00,Wunderground v.1.15,2013-01-13 18:00:00,
2013-01-13 10:10:00,32.0,31.2,30.45,East,79,0.0,0.0,97,0.00,,,0.00,Wunderground v.1.15,2013-01-13 18:10:00,
2013-01-13 10:15:00,32.1,31.3,30.45,ENE,68,0.0,0.0,97,0.00,,,0.00,Wunderground v.1.15,2013-01-13 18:15:00,
2013-01-13 10:20:00,32.4,31.6,30.45,ENE,68,0.0,0.0,97,0.00,,,0.00,Wunderground v.1.15,2013-01-13 18:20:00,
2013-01-13 10:25:00,32.7,31.7,30.44,ENE,59,0.0,0.0,96,0.00,,,0.00,Wunderground v.1.15,2013-01-13 18:25:00,
2013-01-13 10:35:00,33.3,31.0,30.45,SE,138,0.0,1.0,91,0.00,,,0.00,Wunderground v.1.15,2013-01-13 18:35:00,
2013-01-13 10:40:00,34.0,31.4,30.45,SSE,156,0.0,0.0,90,0.00,,,0.00,Wunderground v.1.15,2013-01-13 18:40:00,